Taylortown, Ohio
Current Conditions -  °F | °C
As of 2:52 AM on Thursday 27 Nov 2014 (Local Time) from KMFD Reporting Station
Haze Haze  
Wind Chill: 24°   Ceiling: 600
Heat Index: 30°   Visibility: 5mi
Dew Point: 28°   Wind: 6mph
Humidity: 92%   Direction: 300°WNW
Pressure: 30.02"   Gusts: NA
Location:  40.8848°N, 82.6515°W
Report Text: KMFD 270752Z AUTO 30005KT 5SM BR OVC006 M01/M02 A3002 RMK AO2 CIG 005V011 SLP178 T10111022
Loading
Personal Weather Stations






























Interactive Weather Map New forecast layout! Learn more

10-Day Weather Forecast

Advertisements
Track Severe Weather on mobile